Time;durP1;ratioP1;P1;durP2;ratioP2;P2;SDS_P1;SDS_P2;PMS_P1;PMS_P2;Temp;Humidity;BMP_temperature;BMP_pressure;BME280_temperature;BME280_humidity;BME280_pressure;Samples;Min_cycle;Max_cycle;Signal;HPM_P1;HPM_P2
2024/01/20 00:02:07;;;;;;;109.40;60.45;;;;;;;;;;5072503;28;20041;-65
2024/01/20 00:04:32;;;;;;;129.23;64.47;;;;;;;;;;5070756;28;20513;-65
2024/01/20 00:06:57;;;;;;;119.37;63.77;;;;;;;;;;5072613;28;20024;-64
2024/01/20 00:09:23;;;;;;;123.22;62.78;;;;;;;;;;5071056;28;20865;-64
2024/01/20 00:11:48;;;;;;;118.97;62.10;;;;;;;;;;5071912;28;20110;-64
2024/01/20 00:14:13;;;;;;;112.67;62.57;;;;;;;;;;5070969;28;21043;-65
2024/01/20 00:16:38;;;;;;;111.07;64.47;;;;;;;;;;5071787;28;20542;-65
2024/01/20 00:19:03;;;;;;;114.68;56.13;;;;;;;;;;5070353;28;20459;-65
2024/01/20 00:21:29;;;;;;;112.10;59.08;;;;;;;;;;5072537;28;20024;-65
2024/01/20 00:23:54;;;;;;;114.72;61.38;;;;;;;;;;5070248;28;20033;-65
2024/01/20 00:26:19;;;;;;;114.97;57.80;;;;;;;;;;5071849;28;20097;-65
2024/01/20 00:28:44;;;;;;;109.43;59.42;;;;;;;;;;5070343;28;20446;-64
2024/01/20 00:31:10;;;;;;;99.43;54.47;;;;;;;;;;5072132;28;20089;-65
2024/01/20 00:33:35;;;;;;;118.25;58.17;;;;;;;;;;5069963;28;20435;-65
2024/01/20 00:36:00;;;;;;;111.55;58.53;;;;;;;;;;5071937;28;20023;-65
2024/01/20 00:38:26;;;;;;;108.93;54.13;;;;;;;;;;5069686;28;20060;-65
2024/01/20 00:40:51;;;;;;;128.02;60.55;;;;;;;;;;5071022;28;20155;-65
2024/01/20 00:43:16;;;;;;;118.15;59.08;;;;;;;;;;5071766;28;20039;-65
2024/01/20 00:45:42;;;;;;;122.72;57.63;;;;;;;;;;5069820;28;20035;-66
2024/01/20 00:48:07;;;;;;;101.40;61.75;;;;;;;;;;5071594;28;20032;-65
2024/01/20 00:50:32;;;;;;;118.75;58.17;;;;;;;;;;5069971;28;20035;-65
2024/01/20 00:52:57;;;;;;;115.57;55.97;;;;;;;;;;5071599;28;20008;-61
2024/01/20 00:55:22;;;;;;;108.65;57.97;;;;;;;;;;5070116;28;20977;-66
2024/01/20 00:57:48;;;;;;;117.40;54.53;;;;;;;;;;5070914;28;20052;-65
2024/01/20 01:00:13;;;;;;;108.20;53.72;;;;;;;;;;5069526;28;20528;-65
2024/01/20 01:02:39;;;;;;;103.90;57.42;;;;;;;;;;5071236;28;20025;-65
2024/01/20 01:05:05;;;;;;;112.28;58.72;;;;;;;;;;5069646;28;20406;-65
2024/01/20 01:07:30;;;;;;;99.00;55.45;;;;;;;;;;5071634;28;20029;-65
2024/01/20 01:09:56;;;;;;;110.72;51.17;;;;;;;;;;5069457;28;20118;-65
2024/01/20 01:12:21;;;;;;;101.33;52.63;;;;;;;;;;5070942;28;20484;-65
2024/01/20 01:14:46;;;;;;;121.00;62.13;;;;;;;;;;5069631;28;20474;-65
2024/01/20 01:17:11;;;;;;;106.53;51.37;;;;;;;;;;5071281;28;20065;-65
2024/01/20 01:19:37;;;;;;;102.93;49.80;;;;;;;;;;5068943;28;20450;-64
2024/01/20 01:22:02;;;;;;;99.45;48.83;;;;;;;;;;5071019;28;20386;-65
2024/01/20 01:24:27;;;;;;;110.78;54.40;;;;;;;;;;5069877;28;20036;-65
2024/01/20 01:26:53;;;;;;;111.10;53.35;;;;;;;;;;5070795;28;20022;-64
2024/01/20 01:29:18;;;;;;;108.45;52.78;;;;;;;;;;5069631;28;20048;-64
2024/01/20 01:31:43;;;;;;;109.63;51.13;;;;;;;;;;5070565;28;20032;-62
2024/01/20 01:34:09;;;;;;;110.63;56.10;;;;;;;;;;5069300;28;20451;-62
2024/01/20 01:36:34;;;;;;;107.32;51.65;;;;;;;;;;5070984;28;20464;-62
2024/01/20 01:38:59;;;;;;;113.17;50.17;;;;;;;;;;5069203;28;20426;-62
2024/01/20 01:41:24;;;;;;;100.97;48.63;;;;;;;;;;5070545;28;20426;-63
2024/01/20 01:43:49;;;;;;;97.80;49.87;;;;;;;;;;5069316;28;20455;-62
2024/01/20 01:46:14;;;;;;;101.13;57.13;;;;;;;;;;5070692;28;20492;-62
2024/01/20 01:48:40;;;;;;;111.47;54.47;;;;;;;;;;5068734;28;20447;-63
2024/01/20 01:51:05;;;;;;;107.22;54.25;;;;;;;;;;5070891;28;20111;-63
2024/01/20 01:53:34;;;;;;;98.00;52.72;;;;;;;;;;5069437;28;20024;-62
2024/01/20 01:55:59;;;;;;;117.10;62.92;;;;;;;;;;5070375;28;20039;-62
2024/01/20 01:58:26;;;;;;;102.03;52.00;;;;;;;;;;5069253;28;20096;-62
2024/01/20 02:00:51;;;;;;;109.25;51.80;;;;;;;;;;5070445;28;20066;-63
2024/01/20 02:03:16;;;;;;;101.68;50.33;;;;;;;;;;5070327;28;20016;-62
2024/01/20 02:05:41;;;;;;;99.20;50.27;;;;;;;;;;5069149;28;20036;-62
2024/01/20 02:08:07;;;;;;;112.87;57.93;;;;;;;;;;5070741;28;20460;-63
2024/01/20 02:10:33;;;;;;;116.40;51.28;;;;;;;;;;5068563;28;21008;-62
2024/01/20 02:12:59;;;;;;;98.28;49.25;;;;;;;;;;5070594;28;20051;-63
2024/01/20 02:15:24;;;;;;;103.13;52.90;;;;;;;;;;5068940;28;20087;-63
2024/01/20 02:17:50;;;;;;;91.97;45.88;;;;;;;;;;5070002;28;20024;-62
2024/01/20 02:20:15;;;;;;;104.45;54.25;;;;;;;;;;5068908;28;20048;-63
2024/01/20 02:22:41;;;;;;;111.72;51.83;;;;;;;;;;5070139;28;20020;-62
2024/01/20 02:25:06;;;;;;;105.22;48.80;;;;;;;;;;5068832;28;20115;-63
2024/01/20 02:27:31;;;;;;;92.03;46.13;;;;;;;;;;5070485;28;20078;-63
2024/01/20 02:29:56;;;;;;;110.43;52.72;;;;;;;;;;5067281;28;20047;-63
2024/01/20 02:32:21;;;;;;;107.33;51.27;;;;;;;;;;5070098;28;20028;-63
2024/01/20 02:34:47;;;;;;;105.83;53.30;;;;;;;;;;5068515;28;20497;-63
2024/01/20 02:37:12;;;;;;;103.03;50.67;;;;;;;;;;5070176;28;20423;-63
2024/01/20 02:39:37;;;;;;;96.07;48.67;;;;;;;;;;5068137;28;20043;-63
2024/01/20 02:42:02;;;;;;;99.00;51.10;;;;;;;;;;5070485;28;20034;-63
2024/01/20 02:44:28;;;;;;;89.90;46.45;;;;;;;;;;5068917;28;20466;-63
2024/01/20 02:46:53;;;;;;;91.90;47.53;;;;;;;;;;5069700;28;20199;-63
2024/01/20 02:49:19;;;;;;;103.63;50.53;;;;;;;;;;5068928;28;20485;-64
2024/01/20 02:51:44;;;;;;;94.57;51.17;;;;;;;;;;5069813;28;20016;-63
2024/01/20 02:54:09;;;;;;;94.33;46.47;;;;;;;;;;5068276;28;20502;-64
2024/01/20 02:56:34;;;;;;;90.17;45.40;;;;;;;;;;5069971;28;20431;-63
2024/01/20 02:58:59;;;;;;;93.27;48.50;;;;;;;;;;5067190;28;20466;-64
2024/01/20 03:01:25;;;;;;;83.45;47.28;;;;;;;;;;5069857;28;20454;-64
2024/01/20 03:03:50;;;;;;;91.67;47.13;;;;;;;;;;5071263;28;20067;-63
2024/01/20 03:06:15;;;;;;;96.63;46.20;;;;;;;;;;5073384;28;20438;-65
2024/01/20 03:08:40;;;;;;;91.43;47.58;;;;;;;;;;5071814;28;20109;-64
2024/01/20 03:11:06;;;;;;;91.53;45.70;;;;;;;;;;5073362;28;20031;-64
2024/01/20 03:13:31;;;;;;;90.22;46.30;;;;;;;;;;5072129;28;20493;-64
2024/01/20 03:15:56;;;;;;;94.72;46.85;;;;;;;;;;5073217;28;20096;-64
2024/01/20 03:18:21;;;;;;;83.67;44.93;;;;;;;;;;5071490;28;20079;-63
2024/01/20 03:20:46;;;;;;;84.33;42.73;;;;;;;;;;5073138;28;20418;-63
2024/01/20 03:23:11;;;;;;;88.17;47.50;;;;;;;;;;5073405;28;20414;-63
2024/01/20 03:25:37;;;;;;;93.77;48.33;;;;;;;;;;5071258;28;21075;-64
2024/01/20 03:28:02;;;;;;;93.17;44.63;;;;;;;;;;5073307;28;20417;-64
2024/01/20 03:30:27;;;;;;;92.43;47.50;;;;;;;;;;5071686;28;20455;-64
2024/01/20 03:32:52;;;;;;;88.10;43.93;;;;;;;;;;5072480;28;20016;-64
2024/01/20 03:35:18;;;;;;;78.88;40.72;;;;;;;;;;5071521;28;20455;-64
2024/01/20 03:37:43;;;;;;;89.07;46.72;;;;;;;;;;5072978;28;20083;-63
2024/01/20 03:40:08;;;;;;;100.47;45.30;;;;;;;;;;5071006;28;20064;-63
2024/01/20 03:42:33;;;;;;;95.28;43.22;;;;;;;;;;5072655;28;20415;-63
2024/01/20 03:44:59;;;;;;;89.70;45.78;;;;;;;;;;5071457;28;20041;-64
2024/01/20 03:47:24;;;;;;;80.15;41.42;;;;;;;;;;5072612;28;20032;-63
2024/01/20 03:49:49;;;;;;;79.07;42.53;;;;;;;;;;5071237;28;20032;-62
2024/01/20 03:52:14;;;;;;;72.80;42.17;;;;;;;;;;5072839;28;20419;-64
2024/01/20 03:54:39;;;;;;;82.72;41.95;;;;;;;;;;5070681;28;20443;-62
2024/01/20 03:57:05;;;;;;;76.40;44.43;;;;;;;;;;5072725;28;20028;-63
2024/01/20 03:59:30;;;;;;;82.43;46.30;;;;;;;;;;5071134;28;20466;-64
2024/01/20 04:01:55;;;;;;;83.20;40.07;;;;;;;;;;5071952;28;20024;-62
2024/01/20 04:04:20;;;;;;;101.43;39.43;;;;;;;;;;5071182;28;20455;-62
2024/01/20 04:06:45;;;;;;;78.82;41.88;;;;;;;;;;5072252;28;21046;-62
2024/01/20 04:09:11;;;;;;;71.03;41.00;;;;;;;;;;5070807;28;20116;-62
2024/01/20 04:11:37;;;;;;;84.50;41.03;;;;;;;;;;5072158;28;20434;-62
2024/01/20 04:14:02;;;;;;;87.72;41.83;;;;;;;;;;5070899;28;20024;-62
2024/01/20 04:16:27;;;;;;;85.95;45.75;;;;;;;;;;5072206;28;20021;-63
2024/01/20 04:18:52;;;;;;;81.40;40.78;;;;;;;;;;5070466;28;20516;-63
2024/01/20 04:21:18;;;;;;;85.53;41.23;;;;;;;;;;5072293;28;20070;-64
2024/01/20 04:23:43;;;;;;;95.50;44.50;;;;;;;;;;5070170;28;20447;-63
2024/01/20 04:26:08;;;;;;;82.03;41.93;;;;;;;;;;5072066;28;20423;-63
2024/01/20 04:28:33;;;;;;;86.37;41.30;;;;;;;;;;5070287;28;20459;-63
2024/01/20 04:30:58;;;;;;;83.13;44.93;;;;;;;;;;5071606;28;20419;-63
2024/01/20 04:33:23;;;;;;;78.83;42.67;;;;;;;;;;5070723;28;20419;-62
2024/01/20 04:35:49;;;;;;;77.43;41.50;;;;;;;;;;5071775;28;20422;-63
2024/01/20 04:38:14;;;;;;;81.73;40.43;;;;;;;;;;5071426;28;20488;-63
2024/01/20 04:40:39;;;;;;;67.93;39.73;;;;;;;;;;5069757;28;20535;-62
2024/01/20 04:43:04;;;;;;;78.05;39.58;;;;;;;;;;5071981;28;20969;-62
2024/01/20 04:45:29;;;;;;;70.40;36.38;;;;;;;;;;5069716;28;20036;-62
2024/01/20 04:47:56;;;;;;;81.82;40.55;;;;;;;;;;5071533;28;20019;-63
2024/01/20 04:50:21;;;;;;;75.18;39.83;;;;;;;;;;5070056;28;20049;-63
2024/01/20 04:52:47;;;;;;;74.27;40.27;;;;;;;;;;5071117;28;20031;-64
2024/01/20 04:55:12;;;;;;;74.47;39.28;;;;;;;;;;5070079;28;21035;-64
2024/01/20 04:57:37;;;;;;;80.80;36.95;;;;;;;;;;5071411;28;20490;-64
2024/01/20 05:00:02;;;;;;;77.60;40.80;;;;;;;;;;5069278;28;20508;-64
2024/01/20 05:02:28;;;;;;;78.55;42.15;;;;;;;;;;5071385;28;20441;-64
2024/01/20 05:04:53;;;;;;;88.93;40.50;;;;;;;;;;5069862;28;20047;-64
2024/01/20 05:07:18;;;;;;;75.45;38.00;;;;;;;;;;5070555;28;20430;-64
2024/01/20 05:09:43;;;;;;;82.78;42.33;;;;;;;;;;5069415;28;20120;-64
2024/01/20 05:12:08;;;;;;;82.80;43.43;;;;;;;;;;5071373;28;20028;-64
2024/01/20 05:14:34;;;;;;;74.33;41.07;;;;;;;;;;5069286;28;20443;-64
2024/01/20 05:16:59;;;;;;;84.50;39.90;;;;;;;;;;5071315;28;20832;-64
2024/01/20 05:19:24;;;;;;;72.13;38.40;;;;;;;;;;5069656;28;20478;-66
2024/01/20 05:21:49;;;;;;;77.65;40.30;;;;;;;;;;5070805;28;20027;-66
2024/01/20 05:24:14;;;;;;;98.27;44.37;;;;;;;;;;5069533;28;20029;-66
2024/01/20 05:26:39;;;;;;;96.23;45.97;;;;;;;;;;5070036;28;20435;-65
2024/01/20 05:29:05;;;;;;;88.53;42.20;;;;;;;;;;5069460;28;20466;-65
2024/01/20 05:31:31;;;;;;;77.15;39.90;;;;;;;;;;5070605;28;20419;-65
2024/01/20 05:33:57;;;;;;;78.97;41.22;;;;;;;;;;5069623;28;20036;-65
2024/01/20 05:36:22;;;;;;;78.13;40.72;;;;;;;;;;5071058;28;20380;-65
2024/01/20 05:38:47;;;;;;;75.83;42.07;;;;;;;;;;5068528;28;20072;-67
2024/01/20 05:41:12;;;;;;;88.67;43.10;;;;;;;;;;5070886;28;20945;-65
2024/01/20 05:43:38;;;;;;;86.68;44.67;;;;;;;;;;5069141;28;20411;-65
2024/01/20 05:46:06;;;;;;;69.80;37.67;;;;;;;;;;5070626;28;20024;-65
2024/01/20 05:48:32;;;;;;;;;;;;;;;;;;5070091;28;20419;-65
2024/01/20 05:50:58;;;;;;;79.22;40.42;;;;;;;;;;5070902;28;19920;-65
2024/01/20 05:53:23;;;;;;;77.03;41.67;;;;;;;;;;5068804;28;20099;-65
2024/01/20 05:55:48;;;;;;;85.27;39.97;;;;;;;;;;5070617;28;20032;-65
2024/01/20 05:58:14;;;;;;;75.70;44.15;;;;;;;;;;5070876;28;20411;-64
2024/01/20 06:00:39;;;;;;;78.55;40.47;;;;;;;;;;5068442;28;20048;-65
2024/01/20 06:03:04;;;;;;;76.57;38.67;;;;;;;;;;5070815;28;20547;-65
2024/01/20 06:05:29;;;;;;;90.03;46.27;;;;;;;;;;5069290;28;20028;-65
2024/01/20 06:07:55;;;;;;;83.50;40.55;;;;;;;;;;5070232;28;20980;-65
2024/01/20 06:10:20;;;;;;;76.00;39.27;;;;;;;;;;5069035;28;20060;-65
2024/01/20 06:12:45;;;;;;;86.07;42.37;;;;;;;;;;5070275;28;20419;-65
2024/01/20 06:15:10;;;;;;;80.17;42.67;;;;;;;;;;5069046;28;20451;-65
2024/01/20 06:17:35;;;;;;;86.38;42.60;;;;;;;;;;5070499;28;20430;-64
2024/01/20 06:20:01;;;;;;;79.07;39.50;;;;;;;;;;5068904;28;20032;-65
2024/01/20 06:22:26;;;;;;;78.00;44.22;;;;;;;;;;5070272;28;20443;-65
2024/01/20 06:24:51;;;;;;;90.17;44.40;;;;;;;;;;5068664;28;20392;-65
2024/01/20 06:27:16;;;;;;;81.07;42.67;;;;;;;;;;5070454;28;20427;-65
2024/01/20 06:29:41;;;;;;;84.53;39.30;;;;;;;;;;5068477;28;20492;-65
2024/01/20 06:32:06;;;;;;;73.10;39.77;;;;;;;;;;5070467;28;20422;-63
2024/01/20 06:34:32;;;;;;;69.53;42.40;;;;;;;;;;5068679;28;20447;-63
2024/01/20 06:36:57;;;;;;;74.50;38.43;;;;;;;;;;5070129;28;21022;-62
2024/01/20 06:39:22;;;;;;;71.30;38.10;;;;;;;;;;5078361;28;20466;-67
2024/01/20 06:41:47;;;;;;;65.28;36.55;;;;;;;;;;5079953;28;20439;-62
2024/01/20 06:44:13;;;;;;;73.47;38.70;;;;;;;;;;5071682;28;20480;-62
2024/01/20 06:46:38;;;;;;;69.68;36.70;;;;;;;;;;5073751;28;20435;-62
2024/01/20 06:49:03;;;;;;;80.47;42.10;;;;;;;;;;5072492;28;20086;-61
2024/01/20 06:51:29;;;;;;;82.35;45.20;;;;;;;;;;5073630;28;20471;-62
2024/01/20 06:53:57;;;;;;;77.32;38.63;;;;;;;;;;5071908;28;20051;-62
2024/01/20 06:56:25;;;;;;;82.10;41.28;;;;;;;;;;5074188;28;20027;-62
2024/01/20 06:58:54;;;;;;;81.88;38.22;;;;;;;;;;5071781;28;20037;-62
2024/01/20 07:01:19;;;;;;;66.43;34.38;;;;;;;;;;5072095;28;20024;-61
2024/01/20 07:03:45;;;;;;;72.13;38.58;;;;;;;;;;5072039;28;20036;-61
2024/01/20 07:06:10;;;;;;;83.00;41.03;;;;;;;;;;5073454;28;20017;-62
2024/01/20 07:08:35;;;;;;;57.83;34.57;;;;;;;;;;5071863;28;20030;-62
2024/01/20 07:11:00;;;;;;;77.13;41.90;;;;;;;;;;5073547;28;20402;-61
2024/01/20 07:13:25;;;;;;;80.63;36.97;;;;;;;;;;5071828;28;20008;-61
2024/01/20 07:15:51;;;;;;;69.88;33.50;;;;;;;;;;5073071;28;20427;-61
2024/01/20 07:18:16;;;;;;;62.90;35.65;;;;;;;;;;5073356;28;20394;-61
2024/01/20 07:20:41;;;;;;;68.35;37.80;;;;;;;;;;5070880;28;20067;-61
2024/01/20 07:23:07;;;;;;;77.93;37.37;;;;;;;;;;5072876;28;20356;-61
2024/01/20 07:25:36;;;;;;;68.25;37.75;;;;;;;;;;5071425;28;20524;-61
2024/01/20 07:28:01;;;;;;;74.40;36.17;;;;;;;;;;5072741;28;20078;-61
2024/01/20 07:30:26;;;;;;;71.13;38.30;;;;;;;;;;5071802;28;20037;-61
2024/01/20 07:32:52;;;;;;;66.80;38.55;;;;;;;;;;5070238;28;20035;-61
2024/01/20 07:35:17;;;;;;;75.47;40.67;;;;;;;;;;5070958;28;20069;-61
2024/01/20 07:37:42;;;;;;;87.03;41.80;;;;;;;;;;5071919;28;20455;-61
2024/01/20 07:40:09;;;;;;;71.70;39.17;;;;;;;;;;5069599;28;21092;-61
2024/01/20 07:42:34;;;;;;;73.30;41.67;;;;;;;;;;5083695;28;20423;-61
2024/01/20 07:44:59;;;;;;;65.53;37.43;;;;;;;;;;5090714;28;20031;-61
2024/01/20 07:47:25;;;;;;;64.82;37.20;;;;;;;;;;5076068;28;20446;-62
2024/01/20 07:49:50;;;;;;;72.78;34.65;;;;;;;;;;5069050;28;20036;-62
2024/01/20 07:52:15;;;;;;;70.03;38.28;;;;;;;;;;5071041;28;20039;-59
2024/01/20 07:54:40;;;;;;;65.50;35.77;;;;;;;;;;5070395;28;20419;-58
2024/01/20 07:57:05;;;;;;;65.18;36.78;;;;;;;;;;5071439;28;20443;-58
2024/01/20 07:59:31;;;;;;;75.60;41.07;;;;;;;;;;5070069;28;20044;-59
2024/01/20 08:01:56;;;;;;;64.00;37.10;;;;;;;;;;5083035;28;20499;-58
2024/01/20 08:04:21;;;;;;;62.90;36.43;;;;;;;;;;5078549;28;20043;-58
2024/01/20 08:06:46;;;;;;;66.20;38.27;;;;;;;;;;5070779;28;20480;-58
2024/01/20 08:09:12;;;;;;;66.80;36.23;;;;;;;;;;5070330;28;20486;-59
2024/01/20 08:11:37;;;;;;;68.97;37.75;;;;;;;;;;5070790;28;21036;-59
2024/01/20 08:14:02;;;;;;;70.97;35.95;;;;;;;;;;5069177;28;20040;-58
2024/01/20 08:16:28;;;;;;;56.80;35.80;;;;;;;;;;5072118;28;20016;-58
2024/01/20 08:18:55;;;;;;;64.70;37.40;;;;;;;;;;5068732;28;20454;-58
2024/01/20 08:21:20;;;;;;;68.55;35.92;;;;;;;;;;5070969;28;20012;-58
2024/01/20 08:23:46;;;;;;;69.25;34.65;;;;;;;;;;5070041;28;20086;-58
2024/01/20 08:26:11;;;;;;;63.57;37.07;;;;;;;;;;5070816;28;20013;-58
2024/01/20 08:28:36;;;;;;;62.58;34.72;;;;;;;;;;5069150;28;20917;-58
2024/01/20 08:31:01;;;;;;;61.73;35.93;;;;;;;;;;5071572;28;20475;-59
2024/01/20 08:33:26;;;;;;;67.82;35.78;;;;;;;;;;5058922;28;20462;-59
2024/01/20 08:35:52;;;;;;;63.97;36.42;;;;;;;;;;5070298;28;20024;-59
2024/01/20 08:38:17;;;;;;;60.00;35.60;;;;;;;;;;5070235;28;20035;-58
2024/01/20 08:40:42;;;;;;;58.85;33.88;;;;;;;;;;5068221;28;20392;-59
2024/01/20 08:43:07;;;;;;;61.23;32.20;;;;;;;;;;5070444;28;20067;-59
2024/01/20 08:45:32;;;;;;;57.70;32.70;;;;;;;;;;5069754;28;20500;-59
2024/01/20 08:47:58;;;;;;;53.53;33.60;;;;;;;;;;5070028;28;20020;-58
2024/01/20 08:50:23;;;;;;;48.08;32.38;;;;;;;;;;5069482;28;20450;-58
2024/01/20 08:52:48;;;;;;;52.67;32.93;;;;;;;;;;5070412;28;20023;-59
2024/01/20 08:55:13;;;;;;;49.40;29.80;;;;;;;;;;5068551;28;21005;-58
2024/01/20 08:57:38;;;;;;;49.45;31.33;;;;;;;;;;5070382;28;20465;-58
2024/01/20 09:00:05;;;;;;;57.83;30.83;;;;;;;;;;5068263;28;20040;-58
2024/01/20 09:02:31;;;;;;;47.20;33.72;;;;;;;;;;5071028;28;20509;-59
2024/01/20 09:04:56;;;;;;;46.92;30.10;;;;;;;;;;5066521;28;20116;-59
2024/01/20 09:07:21;;;;;;;44.70;27.17;;;;;;;;;;5070602;28;20025;-63
2024/01/20 09:09:47;;;;;;;46.25;28.13;;;;;;;;;;5069258;28;20451;-58
2024/01/20 09:12:12;;;;;;;51.55;31.45;;;;;;;;;;5070175;28;20016;-58
2024/01/20 09:14:37;;;;;;;37.38;25.90;;;;;;;;;;5069157;28;20041;-59
2024/01/20 09:17:03;;;;;;;48.05;29.75;;;;;;;;;;5070866;28;20024;-59
2024/01/20 09:19:28;;;;;;;45.17;29.83;;;;;;;;;;5067744;28;20099;-59
2024/01/20 09:21:53;;;;;;;46.20;29.30;;;;;;;;;;5070628;28;20096;-58
2024/01/20 09:24:18;;;;;;;45.87;28.97;;;;;;;;;;5069081;28;20451;-59
2024/01/20 09:26:43;;;;;;;43.17;27.87;;;;;;;;;;5069280;28;20431;-58
2024/01/20 09:29:09;;;;;;;41.33;27.05;;;;;;;;;;5069509;28;21000;-59
2024/01/20 09:31:34;;;;;;;49.17;27.60;;;;;;;;;;5070459;28;20020;-59
2024/01/20 09:33:59;;;;;;;46.20;27.80;;;;;;;;;;5070244;28;20964;-58
2024/01/20 09:36:24;;;;;;;49.07;29.60;;;;;;;;;;5069155;28;20458;-62
2024/01/20 09:38:49;;;;;;;43.03;26.20;;;;;;;;;;5069859;28;20555;-59
2024/01/20 09:41:15;;;;;;;50.20;29.58;;;;;;;;;;5068206;28;20036;-59
2024/01/20 09:43:40;;;;;;;41.67;26.67;;;;;;;;;;5070277;28;20543;-59
2024/01/20 09:46:06;;;;;;;47.85;29.67;;;;;;;;;;5069268;28;20035;-59
2024/01/20 09:48:31;;;;;;;50.25;31.90;;;;;;;;;;5070213;28;20020;-59
2024/01/20 09:50:57;;;;;;;47.67;27.35;;;;;;;;;;5068901;28;20044;-59
2024/01/20 09:53:24;;;;;;;45.90;32.95;;;;;;;;;;5069988;28;20016;-59
2024/01/20 09:55:49;;;;;;;43.97;28.05;;;;;;;;;;5067987;28;20056;-59
2024/01/20 09:58:16;;;;;;;36.63;25.03;;;;;;;;;;5070166;28;20059;-59
2024/01/20 10:00:41;;;;;;;45.13;30.30;;;;;;;;;;5067630;28;20471;-60
2024/01/20 10:03:11;;;;;;;46.42;29.67;;;;;;;;;;5068472;28;20626;-59
2024/01/20 10:05:36;;;;;;;43.60;24.45;;;;;;;;;;5066736;28;20060;-59
2024/01/20 10:08:02;;;;;;;46.95;30.45;;;;;;;;;;5068352;28;20491;-59
2024/01/20 10:10:27;;;;;;;46.00;29.27;;;;;;;;;;5067127;28;20412;-59
2024/01/20 10:12:53;;;;;;;41.08;29.45;;;;;;;;;;5071447;28;20356;-59
2024/01/20 10:15:22;;;;;;;48.20;27.27;;;;;;;;;;5071480;28;20056;-59
2024/01/20 10:17:47;;;;;;;53.40;27.25;;;;;;;;;;5073810;28;20103;-59
2024/01/20 10:20:19;;;;;;;48.78;27.42;;;;;;;;;;5072418;28;20124;-59
2024/01/20 10:22:44;;;;;;;46.72;28.15;;;;;;;;;;5073885;28;20579;-59
2024/01/20 10:25:10;;;;;;;37.17;24.93;;;;;;;;;;5072739;28;20115;-59
2024/01/20 10:27:35;;;;;;;44.87;24.33;;;;;;;;;;5073373;28;20423;-59
2024/01/20 10:30:00;;;;;;;41.07;28.33;;;;;;;;;;5071732;28;20496;-59
2024/01/20 10:32:27;;;;;;;41.57;24.07;;;;;;;;;;5073765;28;20415;-59
2024/01/20 10:34:52;;;;;;;41.75;25.63;;;;;;;;;;5072012;28;20447;-59
2024/01/20 10:37:19;;;;;;;47.37;26.90;;;;;;;;;;5073551;28;20017;-59
2024/01/20 10:39:45;;;;;;;47.33;27.35;;;;;;;;;;5071464;28;20462;-59
2024/01/20 10:42:13;;;;;;;40.35;25.60;;;;;;;;;;5073835;28;20027;-59
2024/01/20 10:44:41;;;;;;;39.78;24.05;;;;;;;;;;5072116;28;20024;-59
2024/01/20 10:47:11;;;;;;;46.22;28.15;;;;;;;;;;5073600;28;20008;-59
2024/01/20 10:49:38;;;;;;;36.03;25.38;;;;;;;;;;5071654;28;20050;-59
2024/01/20 10:52:04;;;;;;;41.50;23.83;;;;;;;;;;5072935;28;20016;-59
2024/01/20 10:54:29;;;;;;;41.70;28.35;;;;;;;;;;5072100;28;20470;-59
2024/01/20 10:56:55;;;;;;;41.08;25.85;;;;;;;;;;5072888;28;20479;-61
2024/01/20 10:59:22;;;;;;;48.42;27.25;;;;;;;;;;5071688;28;20044;-59
2024/01/20 11:01:48;;;;;;;46.45;27.05;;;;;;;;;;5071861;28;20515;-59
2024/01/20 11:04:19;;;;;;;37.35;26.83;;;;;;;;;;5071574;28;20029;-59
2024/01/20 11:06:45;;;;;;;43.53;27.50;;;;;;;;;;5072562;28;20505;-58
2024/01/20 11:09:18;;;;;;;43.03;22.67;;;;;;;;;;5071893;28;20112;-59
2024/01/20 11:11:57;;;;;;;48.60;27.48;;;;;;;;;;5072176;28;20365;-59
2024/01/20 11:14:27;;;;;;;45.55;28.10;;;;;;;;;;5071907;28;20037;-58
2024/01/20 11:16:52;;;;;;;40.10;24.23;;;;;;;;;;5072337;28;20052;-58
2024/01/20 11:19:18;;;;;;;43.05;25.13;;;;;;;;;;5071249;28;20067;-59
2024/01/20 11:21:43;;;;;;;54.80;27.27;;;;;;;;;;5072369;28;20021;-59
2024/01/20 11:24:08;;;;;;;42.90;26.47;;;;;;;;;;5070057;28;20029;-58
2024/01/20 11:26:35;;;;;;;37.80;25.75;;;;;;;;;;5071684;28;20778;-58
2024/01/20 11:29:00;;;;;;;44.00;24.88;;;;;;;;;;5071311;28;20044;-58
2024/01/20 11:31:26;;;;;;;38.00;24.55;;;;;;;;;;5072761;28;20096;-58
2024/01/20 11:33:52;;;;;;;40.15;26.58;;;;;;;;;;5070845;28;20399;-58
2024/01/20 11:36:17;;;;;;;43.97;27.35;;;;;;;;;;5072727;28;20107;-58
2024/01/20 11:38:42;;;;;;;40.45;24.45;;;;;;;;;;5070986;28;20136;-58
2024/01/20 11:41:08;;;;;;;40.65;24.15;;;;;;;;;;5072220;28;20098;-58
2024/01/20 11:43:33;;;;;;;39.17;24.07;;;;;;;;;;5071184;28;20059;-59
2024/01/20 11:45:58;;;;;;;46.10;26.10;;;;;;;;;;5072293;28;20461;-58
2024/01/20 11:48:24;;;;;;;36.40;22.30;;;;;;;;;;5070842;28;20096;-57
2024/01/20 11:50:49;;;;;;;39.83;25.77;;;;;;;;;;5072565;28;20973;-58
2024/01/20 11:53:15;;;;;;;47.45;24.95;;;;;;;;;;5072521;28;20062;-58
2024/01/20 11:55:40;;;;;;;43.85;26.60;;;;;;;;;;5070245;28;20060;-59
2024/01/20 11:58:05;;;;;;;46.30;27.80;;;;;;;;;;5072408;28;20089;-59
2024/01/20 12:00:30;;;;;;;49.77;29.40;;;;;;;;;;5070695;28;21199;-58
2024/01/20 12:02:55;;;;;;;47.70;29.00;;;;;;;;;;5071376;28;20435;-58
2024/01/20 12:05:21;;;;;;;45.45;25.73;;;;;;;;;;5070372;28;20482;-58
2024/01/20 12:07:46;;;;;;;52.70;30.13;;;;;;;;;;5071212;28;20020;-58
2024/01/20 12:10:14;;;;;;;46.78;27.67;;;;;;;;;;5070428;28;20075;-58
2024/01/20 12:12:39;;;;;;;41.88;26.73;;;;;;;;;;5071889;28;20028;-58
2024/01/20 12:15:06;;;;;;;47.05;30.33;;;;;;;;;;5069976;28;20109;-59
2024/01/20 12:17:32;;;;;;;45.58;25.58;;;;;;;;;;5071324;28;20035;-58
2024/01/20 12:19:57;;;;;;;49.40;26.13;;;;;;;;;;5069986;28;20037;-58
2024/01/20 12:22:22;;;;;;;42.35;25.33;;;;;;;;;;5071952;28;20024;-58
2024/01/20 12:24:48;;;;;;;37.83;25.67;;;;;;;;;;5069977;28;20527;-59
2024/01/20 12:27:18;;;;;;;43.95;28.38;;;;;;;;;;5071427;28;20095;-58
2024/01/20 12:29:43;;;;;;;50.17;30.40;;;;;;;;;;5069729;28;20048;-58
2024/01/20 12:32:08;;;;;;;50.80;26.33;;;;;;;;;;5071285;28;20024;-58
2024/01/20 12:34:34;;;;;;;38.15;25.35;;;;;;;;;;5068208;28;20455;-59
2024/01/20 12:36:59;;;;;;;43.08;27.85;;;;;;;;;;5066014;28;20025;-58
2024/01/20 12:39:24;;;;;;;43.97;28.17;;;;;;;;;;5060789;28;20071;-58
2024/01/20 12:41:50;;;;;;;42.20;25.83;;;;;;;;;;5070931;28;20514;-58
2024/01/20 12:44:16;;;;;;;35.25;24.02;;;;;;;;;;5069166;28;20029;-58
2024/01/20 12:46:41;;;;;;;43.63;28.38;;;;;;;;;;5070721;28;20028;-58
2024/01/20 12:49:06;;;;;;;45.90;26.10;;;;;;;;;;5070180;28;20035;-58
2024/01/20 12:51:31;;;;;;;36.63;22.27;;;;;;;;;;5070617;28;20025;-58
2024/01/20 12:53:57;;;;;;;48.72;28.17;;;;;;;;;;5068619;28;20496;-58
2024/01/20 12:56:22;;;;;;;39.22;25.90;;;;;;;;;;5070673;28;20028;-58
2024/01/20 12:58:47;;;;;;;45.22;25.27;;;;;;;;;;5070058;28;20115;-58
2024/01/20 13:01:13;;;;;;;39.40;26.33;;;;;;;;;;5071114;28;20020;-57
2024/01/20 13:03:38;;;;;;;36.10;25.10;;;;;;;;;;5069377;28;20457;-60
2024/01/20 13:06:03;;;;;;;37.58;23.98;;;;;;;;;;5071113;28;20016;-59
2024/01/20 13:08:28;;;;;;;34.45;22.30;;;;;;;;;;5069455;28;20104;-59
2024/01/20 13:10:54;;;;;;;42.77;27.80;;;;;;;;;;5070982;28;20021;-59
2024/01/20 13:13:21;;;;;;;43.75;27.70;;;;;;;;;;5071615;28;20816;-59
2024/01/20 13:15:46;;;;;;;34.90;24.90;;;;;;;;;;5069236;28;20056;-58
2024/01/20 13:18:11;;;;;;;38.83;22.40;;;;;;;;;;5071363;28;20101;-59
2024/01/20 13:20:36;;;;;;;40.10;23.80;;;;;;;;;;5069412;28;20906;-59
2024/01/20 13:23:01;;;;;;;39.90;22.77;;;;;;;;;;5070498;28;20446;-58
2024/01/20 13:25:27;;;;;;;33.72;23.63;;;;;;;;;;5064712;28;20458;-58
2024/01/20 13:27:52;;;;;;;37.00;22.48;;;;;;;;;;5069490;28;20030;-58
2024/01/20 13:30:17;;;;;;;38.30;20.88;;;;;;;;;;5068047;28;20043;-59
2024/01/20 13:32:42;;;;;;;38.78;21.75;;;;;;;;;;5069453;28;20055;-58
2024/01/20 13:35:08;;;;;;;33.75;22.50;;;;;;;;;;5069498;28;20032;-59
2024/01/20 13:37:33;;;;;;;38.92;24.27;;;;;;;;;;5070366;28;20024;-58
2024/01/20 13:39:58;;;;;;;42.63;26.23;;;;;;;;;;5068942;28;20094;-58
2024/01/20 13:42:24;;;;;;;40.67;23.70;;;;;;;;;;5071168;28;20435;-58
2024/01/20 13:44:49;;;;;;;42.88;27.63;;;;;;;;;;5069323;28;20407;-58
2024/01/20 13:47:15;;;;;;;41.35;27.05;;;;;;;;;;5070111;28;20077;-58
2024/01/20 13:49:40;;;;;;;39.53;22.73;;;;;;;;;;5069273;28;20508;-58
2024/01/20 13:52:05;;;;;;;36.83;23.87;;;;;;;;;;5070967;28;20021;-59
2024/01/20 13:54:30;;;;;;;40.47;24.53;;;;;;;;;;5068718;28;20992;-58
2024/01/20 13:56:55;;;;;;;38.93;22.87;;;;;;;;;;5070117;28;20443;-58
2024/01/20 13:59:20;;;;;;;33.23;25.30;;;;;;;;;;5069194;28;20467;-58
2024/01/20 14:01:47;;;;;;;35.03;23.33;;;;;;;;;;5069884;28;20496;-58
2024/01/20 14:04:13;;;;;;;39.50;26.75;;;;;;;;;;5069198;28;20867;-58
2024/01/20 14:06:38;;;;;;;39.90;26.60;;;;;;;;;;5070804;28;20016;-58